Time;durP1;ratioP1;P1;durP2;ratioP2;P2;SDS_P1;SDS_P2;PMS_P1;PMS_P2;Temp;Humidity;BMP_temperature;BMP_pressure;BME280_temperature;BME280_humidity;BME280_pressure;Samples;Min_cycle;Max_cycle;Signal;HPM_P1;HPM_P2
2023/03/29 00:02:19;;;;;;;3.72;1.98;;;;;;;;;;5086128;28;20513;-57
2023/03/29 00:04:45;;;;;;;5.30;1.95;;;;;;;;;;5086331;28;20054;-57
2023/03/29 00:07:13;;;;;;;4.47;2.00;;;;;;;;;;5086313;28;20054;-57
2023/03/29 00:09:39;;;;;;;6.70;2.00;;;;;;;;;;5090657;28;20590;-57
2023/03/29 00:12:06;;;;;;;3.63;2.03;;;;;;;;;;5088807;28;20032;-57
2023/03/29 00:14:32;;;;;;;7.28;2.25;;;;;;;;;;5086079;28;20193;-58
2023/03/29 00:16:58;;;;;;;5.30;1.92;;;;;;;;;;5088336;28;20155;-57
2023/03/29 00:19:24;;;;;;;4.93;2.10;;;;;;;;;;5086563;28;20048;-57
2023/03/29 00:21:50;;;;;;;3.63;2.35;;;;;;;;;;5088253;28;20054;-62
2023/03/29 00:24:16;;;;;;;5.00;2.22;;;;;;;;;;5087660;28;20047;-57
2023/03/29 00:26:42;;;;;;;5.90;2.10;;;;;;;;;;5087044;28;20088;-57
2023/03/29 00:29:09;;;;;;;4.05;2.08;;;;;;;;;;5088722;28;20051;-57
2023/03/29 00:31:35;;;;;;;5.43;2.00;;;;;;;;;;5083763;28;20535;-57
2023/03/29 00:34:01;;;;;;;7.07;2.42;;;;;;;;;;5087911;28;20040;-57
2023/03/29 00:36:27;;;;;;;7.50;2.28;;;;;;;;;;5086401;28;20041;-58
2023/03/29 00:38:55;;;;;;;8.15;2.45;;;;;;;;;;5088483;28;20039;-57
2023/03/29 00:41:21;;;;;;;4.57;2.03;;;;;;;;;;5087734;28;20093;-57
2023/03/29 00:43:58;;;;;;;4.72;2.20;;;;;;;;;;5089464;28;20036;-58
2023/03/29 00:46:25;;;;;;;4.78;2.33;;;;;;;;;;5091617;28;20126;-57
2023/03/29 00:48:53;;;;;;;6.82;2.10;;;;;;;;;;5090202;28;20039;-57
2023/03/29 00:51:20;;;;;;;8.82;2.55;;;;;;;;;;5091973;28;20036;-57
2023/03/29 00:53:50;;;;;;;5.38;2.55;;;;;;;;;;5090337;28;20043;-62
2023/03/29 00:56:25;;;;;;;4.32;2.30;;;;;;;;;;5092784;28;20528;-57
2023/03/29 00:58:53;;;;;;;8.93;2.60;;;;;;;;;;5092342;28;20413;-57
2023/03/29 01:01:27;;;;;;;5.78;2.92;;;;;;;;;;5088287;28;20032;-57
2023/03/29 01:03:58;;;;;;;4.95;2.45;;;;;;;;;;5091524;28;20085;-57
2023/03/29 01:06:27;;;;;;;7.78;2.67;;;;;;;;;;5110046;22;20049;-57
2023/03/29 01:08:56;;;;;;;11.30;2.85;;;;;;;;;;5027049;28;20053;-57
2023/03/29 01:11:25;;;;;;;6.35;2.85;;;;;;;;;;5026053;28;20049;-57
2023/03/29 01:13:56;;;;;;;8.30;3.20;;;;;;;;;;5029114;28;20092;-57
2023/03/29 01:16:24;;;;;;;5.95;3.28;;;;;;;;;;5024169;28;20132;-57
2023/03/29 01:18:51;;;;;;;6.82;3.40;;;;;;;;;;5026023;28;20049;-57
2023/03/29 01:21:22;;;;;;;5.95;3.08;;;;;;;;;;5023886;28;20045;-61
2023/03/29 01:24:05;;;;;;;6.95;2.72;;;;;;;;;;5025889;28;20520;-57
2023/03/29 01:26:40;;;;;;;8.93;3.10;;;;;;;;;;5023069;28;20606;-57
2023/03/29 01:29:08;;;;;;;6.95;3.03;;;;;;;;;;5025027;28;20450;-57
2023/03/29 01:31:38;;;;;;;13.05;3.60;;;;;;;;;;5021276;28;20046;-57
2023/03/29 01:34:10;;;;;;;4.85;2.92;;;;;;;;;;5025135;28;20041;-57
2023/03/29 01:36:40;;;;;;;9.13;3.70;;;;;;;;;;5021400;28;20124;-57
2023/03/29 01:39:07;;;;;;;5.50;2.90;;;;;;;;;;5026449;28;20439;-57
2023/03/29 01:41:45;;;;;;;10.13;3.47;;;;;;;;;;5026380;28;20045;-57
2023/03/29 01:44:14;;;;;;;7.20;3.03;;;;;;;;;;5022317;28;20061;-57
2023/03/29 01:46:45;;;;;;;8.25;3.10;;;;;;;;;;5022423;28;20288;-57
2023/03/29 01:49:14;;;;;;;7.03;2.97;;;;;;;;;;5025945;28;20387;-57
2023/03/29 01:51:43;;;;;;;6.05;3.20;;;;;;;;;;5026337;28;20498;-57
2023/03/29 01:54:13;;;;;;;9.60;3.25;;;;;;;;;;5024535;28;20056;-57
2023/03/29 01:56:41;;;;;;;7.43;3.22;;;;;;;;;;5027329;28;20450;-57
2023/03/29 01:59:10;;;;;;;5.60;2.90;;;;;;;;;;5027276;28;20497;-57
2023/03/29 02:01:39;;;;;;;5.97;2.83;;;;;;;;;;5026573;28;20288;-57
2023/03/29 02:04:09;;;;;;;7.18;3.15;;;;;;;;;;5026504;28;20079;-57
2023/03/29 02:06:38;;;;;;;6.72;3.33;;;;;;;;;;5025798;28;20058;-58
2023/03/29 02:09:05;;;;;;;6.07;3.00;;;;;;;;;;5026815;28;20049;-57
2023/03/29 02:11:32;;;;;;;7.00;3.33;;;;;;;;;;5025935;28;20049;-57
2023/03/29 02:13:58;;;;;;;6.28;3.20;;;;;;;;;;5026100;28;20049;-58
2023/03/29 02:16:25;;;;;;;10.85;3.65;;;;;;;;;;5026495;28;20466;-62
2023/03/29 02:18:53;;;;;;;8.43;3.83;;;;;;;;;;5025628;28;20041;-57
2023/03/29 02:21:28;;;;;;;9.05;3.40;;;;;;;;;;5026381;28;20037;-58
2023/03/29 02:23:55;;;;;;;7.13;3.35;;;;;;;;;;5022229;28;20080;-58
2023/03/29 02:26:23;;;;;;;6.53;3.47;;;;;;;;;;5025313;28;20495;-58
2023/03/29 02:28:50;;;;;;;8.88;4.30;;;;;;;;;;5025891;28;20515;-58
2023/03/29 02:31:23;;;;;;;8.32;3.25;;;;;;;;;;5020045;28;20069;-58
2023/03/29 02:33:51;;;;;;;7.88;3.47;;;;;;;;;;5024457;28;20045;-58
2023/03/29 02:36:27;;;;;;;6.45;3.25;;;;;;;;;;5020433;28;20067;-59
2023/03/29 02:38:54;;;;;;;8.15;3.95;;;;;;;;;;5020662;28;20045;-59
2023/03/29 02:41:22;;;;;;;7.03;3.70;;;;;;;;;;5023687;28;20033;-58
2023/03/29 02:43:49;;;;;;;8.55;3.63;;;;;;;;;;5023417;28;20494;-59
2023/03/29 02:46:16;;;;;;;7.55;3.60;;;;;;;;;;5026103;28;20045;-58
2023/03/29 02:48:43;;;;;;;9.65;3.85;;;;;;;;;;5023064;28;20445;-59
2023/03/29 02:51:17;;;;;;;10.13;3.90;;;;;;;;;;5026278;28;20042;-59
2023/03/29 02:53:48;;;;;;;7.72;3.90;;;;;;;;;;5025433;28;20112;-58
2023/03/29 02:56:15;;;;;;;6.57;3.95;;;;;;;;;;5026346;28;20072;-58
2023/03/29 02:58:41;;;;;;;9.93;4.63;;;;;;;;;;5025810;28;20048;-58
2023/03/29 03:01:09;;;;;;;10.70;3.97;;;;;;;;;;5026211;28;20180;-60
2023/03/29 03:03:35;;;;;;;8.20;3.88;;;;;;;;;;5025305;28;20548;-58
2023/03/29 03:06:01;;;;;;;10.05;4.43;;;;;;;;;;5024601;28;20061;-58
2023/03/29 03:08:28;;;;;;;8.48;4.18;;;;;;;;;;5024688;28;20528;-58
2023/03/29 03:10:54;;;;;;;11.13;3.72;;;;;;;;;;5026119;28;20085;-58
2023/03/29 03:13:20;;;;;;;9.52;4.43;;;;;;;;;;5025844;28;20394;-58
2023/03/29 03:15:48;;;;;;;10.02;4.57;;;;;;;;;;5025331;28;20566;-61
2023/03/29 03:18:15;;;;;;;9.98;4.78;;;;;;;;;;5026061;28;20514;-58
2023/03/29 03:20:45;;;;;;;7.63;4.22;;;;;;;;;;5025200;28;20097;-59
2023/03/29 03:23:12;;;;;;;9.15;4.80;;;;;;;;;;5024842;28;20133;-59
2023/03/29 03:25:38;;;;;;;8.45;4.60;;;;;;;;;;5024052;28;20041;-60
2023/03/29 03:28:04;;;;;;;11.50;4.90;;;;;;;;;;5025592;28;20045;-59
2023/03/29 03:30:30;;;;;;;13.77;5.15;;;;;;;;;;5025190;28;20095;-59
2023/03/29 03:32:56;;;;;;;13.30;5.63;;;;;;;;;;5025266;28;20045;-60
2023/03/29 03:35:23;;;;;;;10.93;4.88;;;;;;;;;;5020453;28;20498;-58
2023/03/29 03:37:49;;;;;;;8.90;4.93;;;;;;;;;;5024232;28;20037;-59
2023/03/29 03:40:22;;;;;;;13.13;5.95;;;;;;;;;;5025628;28;20710;-59
2023/03/29 03:42:52;;;;;;;10.40;5.38;;;;;;;;;;5025494;28;20040;-59
2023/03/29 03:45:18;;;;;;;11.95;5.55;;;;;;;;;;5024038;28;20763;-59
2023/03/29 03:47:44;;;;;;;11.75;5.47;;;;;;;;;;5021098;28;20558;-58
2023/03/29 03:50:11;;;;;;;8.45;5.53;;;;;;;;;;5025059;28;20076;-58
2023/03/29 03:52:37;;;;;;;11.57;5.80;;;;;;;;;;5024248;28;20045;-59
2023/03/29 03:55:03;;;;;;;10.65;5.60;;;;;;;;;;5025034;28;20038;-58
2023/03/29 03:57:31;;;;;;;10.73;5.45;;;;;;;;;;5025108;28;20049;-58
2023/03/29 03:59:58;;;;;;;11.77;6.03;;;;;;;;;;5025214;28;20475;-59
2023/03/29 04:02:25;;;;;;;10.50;6.00;;;;;;;;;;5025138;28;20084;-59
2023/03/29 04:04:51;;;;;;;9.52;5.38;;;;;;;;;;5024495;28;20045;-58
2023/03/29 04:07:18;;;;;;;16.20;6.15;;;;;;;;;;5022659;28;20479;-59
2023/03/29 04:09:44;;;;;;;14.48;6.47;;;;;;;;;;5024610;28;20045;-59
2023/03/29 04:12:10;;;;;;;12.27;5.88;;;;;;;;;;5023802;28;20686;-58
2023/03/29 04:14:37;;;;;;;12.55;5.80;;;;;;;;;;5022842;28;20091;-59
2023/03/29 04:17:03;;;;;;;12.48;6.05;;;;;;;;;;5024122;28;20069;-59
2023/03/29 04:19:29;;;;;;;10.15;6.25;;;;;;;;;;5028053;28;20052;-59
2023/03/29 04:21:56;;;;;;;11.85;6.00;;;;;;;;;;5027528;28;20108;-59
2023/03/29 04:24:23;;;;;;;10.30;6.05;;;;;;;;;;5027612;28;20096;-59
2023/03/29 04:26:49;;;;;;;11.57;5.70;;;;;;;;;;5026542;28;20487;-59
2023/03/29 04:29:15;;;;;;;13.10;6.05;;;;;;;;;;5026016;28;20491;-58
2023/03/29 04:31:41;;;;;;;14.52;5.68;;;;;;;;;;5026737;28;20041;-59
2023/03/29 04:34:08;;;;;;;18.10;6.75;;;;;;;;;;5027587;28;20124;-60
2023/03/29 04:36:34;;;;;;;13.32;5.75;;;;;;;;;;5025174;28;20056;-59
2023/03/29 04:39:00;;;;;;;10.82;5.97;;;;;;;;;;5027830;28;20048;-58
2023/03/29 04:41:27;;;;;;;10.30;5.97;;;;;;;;;;5021897;28;20033;-58
2023/03/29 04:43:54;;;;;;;13.77;5.85;;;;;;;;;;5026969;28;20045;-59
2023/03/29 04:46:24;;;;;;;14.68;5.75;;;;;;;;;;5027437;28;20128;-59
2023/03/29 04:48:51;;;;;;;15.63;6.30;;;;;;;;;;5023336;28;20041;-59
2023/03/29 04:51:17;;;;;;;10.52;5.88;;;;;;;;;;5027254;28;20128;-63
2023/03/29 04:53:43;;;;;;;12.13;5.72;;;;;;;;;;5021917;28;20507;-58
2023/03/29 04:56:09;;;;;;;11.52;5.25;;;;;;;;;;5026617;28;20553;-58
2023/03/29 04:58:36;;;;;;;10.07;5.22;;;;;;;;;;5019951;28;20095;-59
2023/03/29 05:01:02;;;;;;;14.00;6.35;;;;;;;;;;5022557;28;20498;-59
2023/03/29 05:03:28;;;;;;;14.70;5.28;;;;;;;;;;5025478;28;20053;-58
2023/03/29 05:05:54;;;;;;;14.93;6.35;;;;;;;;;;5022392;28;20172;-59
2023/03/29 05:08:21;;;;;;;13.15;6.22;;;;;;;;;;5026040;28;20095;-59
2023/03/29 05:10:48;;;;;;;14.65;6.30;;;;;;;;;;5020829;28;20537;-61
2023/03/29 05:13:15;;;;;;;15.32;6.60;;;;;;;;;;5026765;28;20088;-59
2023/03/29 05:15:42;;;;;;;21.13;6.47;;;;;;;;;;5022448;28;20088;-59
2023/03/29 05:18:08;;;;;;;18.83;7.03;;;;;;;;;;5026143;28;20048;-60
2023/03/29 05:20:34;;;;;;;12.05;6.03;;;;;;;;;;5022508;28;20051;-59
2023/03/29 05:23:00;;;;;;;12.75;6.40;;;;;;;;;;5022621;28;20080;-58
2023/03/29 05:25:27;;;;;;;11.35;5.85;;;;;;;;;;5025992;28;20103;-59
2023/03/29 05:27:53;;;;;;;12.93;6.03;;;;;;;;;;5021196;28;20467;-58
2023/03/29 05:30:19;;;;;;;14.82;6.30;;;;;;;;;;5021363;28;20080;-58
2023/03/29 05:32:45;;;;;;;14.35;6.70;;;;;;;;;;5020726;28;20069;-58
2023/03/29 05:35:11;;;;;;;12.32;5.75;;;;;;;;;;5023771;28;20060;-57
2023/03/29 05:37:38;;;;;;;14.63;6.22;;;;;;;;;;5018774;28;20041;-58
2023/03/29 05:40:06;;;;;;;17.17;5.97;;;;;;;;;;5022075;28;20045;-58
2023/03/29 05:42:33;;;;;;;13.68;6.10;;;;;;;;;;5023813;28;20403;-58
2023/03/29 05:44:59;;;;;;;16.00;6.90;;;;;;;;;;5026120;28;20124;-58
2023/03/29 05:47:27;;;;;;;21.27;7.20;;;;;;;;;;5022122;28;20072;-63
2023/03/29 05:49:56;;;;;;;11.70;5.40;;;;;;;;;;5023903;28;20124;-58
2023/03/29 05:52:23;;;;;;;13.63;6.07;;;;;;;;;;5023555;28;20502;-58
2023/03/29 05:54:49;;;;;;;10.88;5.90;;;;;;;;;;5019579;28;20085;-58
2023/03/29 05:57:15;;;;;;;11.82;5.97;;;;;;;;;;5014430;28;20037;-57
2023/03/29 05:59:41;;;;;;;12.30;6.00;;;;;;;;;;5016069;28;20103;-58
2023/03/29 06:02:09;;;;;;;14.48;6.25;;;;;;;;;;5016256;28;20372;-59
2023/03/29 06:04:36;;;;;;;12.88;6.32;;;;;;;;;;5023020;28;20053;-58
2023/03/29 06:07:03;;;;;;;12.07;6.80;;;;;;;;;;5024202;28;20062;-58
2023/03/29 06:09:30;;;;;;;15.85;8.48;;;;;;;;;;5025134;28;20045;-59
2023/03/29 06:11:57;;;;;;;13.07;6.30;;;;;;;;;;5024830;28;20049;-59
2023/03/29 06:14:24;;;;;;;18.55;9.80;;;;;;;;;;5019947;28;20064;-58
2023/03/29 06:16:50;;;;;;;13.60;6.60;;;;;;;;;;5020667;28;20037;-58
2023/03/29 06:19:17;;;;;;;13.82;6.45;;;;;;;;;;5014855;28;20049;-58
2023/03/29 06:21:43;;;;;;;13.77;7.10;;;;;;;;;;5017681;28;20441;-58
2023/03/29 06:24:09;;;;;;;20.13;7.32;;;;;;;;;;5016856;28;20559;-58
2023/03/29 06:26:36;;;;;;;16.85;7.05;;;;;;;;;;5016259;28;20085;-58
2023/03/29 06:29:03;;;;;;;22.60;11.45;;;;;;;;;;5018581;28;20049;-58
2023/03/29 06:31:30;;;;;;;14.38;6.60;;;;;;;;;;5013090;28;20049;-59
2023/03/29 06:33:57;;;;;;;15.40;7.07;;;;;;;;;;5020288;28;20415;-59
2023/03/29 06:36:23;;;;;;;15.75;6.20;;;;;;;;;;5019959;28;20037;-58
2023/03/29 06:38:49;;;;;;;12.20;6.60;;;;;;;;;;5018742;28;20098;-59
2023/03/29 06:41:15;;;;;;;14.13;7.25;;;;;;;;;;5018902;28;20037;-58
2023/03/29 06:43:42;;;;;;;15.25;6.93;;;;;;;;;;5021657;28;20045;-58
2023/03/29 06:46:10;;;;;;;12.45;7.03;;;;;;;;;;5024354;28;20091;-59
2023/03/29 06:48:37;;;;;;;13.05;6.47;;;;;;;;;;5023858;28;20608;-59
2023/03/29 06:51:04;;;;;;;11.13;6.20;;;;;;;;;;5023569;28;20235;-58
2023/03/29 06:53:31;;;;;;;13.18;6.88;;;;;;;;;;5021487;28;20543;-58
2023/03/29 06:55:58;;;;;;;11.85;6.40;;;;;;;;;;5023244;28;20038;-60
2023/03/29 06:58:24;;;;;;;14.73;6.78;;;;;;;;;;5023827;28;20052;-58
2023/03/29 07:00:50;;;;;;;18.70;6.55;;;;;;;;;;5024311;28;20044;-58
2023/03/29 07:03:23;;;;;;;12.18;6.32;;;;;;;;;;5023682;28;20052;-61
2023/03/29 07:05:50;;;;;;;12.73;6.28;;;;;;;;;;5019802;28;20053;-58
2023/03/29 07:08:19;;;;;;;13.23;7.07;;;;;;;;;;5024126;28;20105;-63
2023/03/29 07:10:46;;;;;;;11.20;6.28;;;;;;;;;;5023194;28;20195;-58
2023/03/29 07:13:12;;;;;;;10.60;5.82;;;;;;;;;;5024655;28;20716;-58
2023/03/29 07:15:40;;;;;;;14.30;6.63;;;;;;;;;;5023827;28;20029;-58
2023/03/29 07:18:07;;;;;;;14.13;6.40;;;;;;;;;;5023764;28;20392;-58
2023/03/29 07:20:33;;;;;;;10.38;6.22;;;;;;;;;;5023122;28;20041;-58
2023/03/29 07:22:59;;;;;;;12.48;6.00;;;;;;;;;;5021713;28;20046;-58
2023/03/29 07:25:26;;;;;;;19.08;6.30;;;;;;;;;;5022953;28;20052;-60
2023/03/29 07:27:53;;;;;;;13.82;6.22;;;;;;;;;;5022189;28;20042;-58
2023/03/29 07:30:21;;;;;;;13.32;7.07;;;;;;;;;;5023965;28;20512;-58
2023/03/29 07:32:49;;;;;;;10.02;5.68;;;;;;;;;;5023969;28;20578;-59
2023/03/29 07:35:16;;;;;;;12.00;6.00;;;;;;;;;;5024613;28;20715;-58
2023/03/29 07:37:43;;;;;;;12.65;6.65;;;;;;;;;;5022969;28;20075;-58
2023/03/29 07:40:14;;;;;;;16.55;8.13;;;;;;;;;;5023208;28;20041;-59
2023/03/29 07:42:42;;;;;;;14.80;7.07;;;;;;;;;;5023081;28;20077;-58
2023/03/29 07:45:09;;;;;;;14.97;7.47;;;;;;;;;;5023526;28;20041;-58
2023/03/29 07:47:36;;;;;;;12.55;6.63;;;;;;;;;;5023054;28;20300;-58
2023/03/29 07:50:03;;;;;;;12.63;5.78;;;;;;;;;;5023257;28;20046;-58
2023/03/29 07:52:29;;;;;;;9.88;6.00;;;;;;;;;;5022109;28;20134;-58
2023/03/29 07:54:56;;;;;;;9.68;5.95;;;;;;;;;;5022578;28;20053;-58
2023/03/29 07:57:23;;;;;;;11.63;5.97;;;;;;;;;;5023795;28;20061;-58
2023/03/29 07:59:50;;;;;;;15.25;6.28;;;;;;;;;;5023262;28;20040;-58
2023/03/29 08:02:16;;;;;;;10.65;5.63;;;;;;;;;;5023488;28;20052;-59
2023/03/29 08:04:42;;;;;;;12.23;5.90;;;;;;;;;;5023510;28;20052;-58
2023/03/29 08:07:09;;;;;;;12.07;6.28;;;;;;;;;;5020495;28;20045;-58
2023/03/29 08:09:36;;;;;;;12.20;6.50;;;;;;;;;;5021966;28;20046;-58
2023/03/29 08:12:02;;;;;;;13.73;5.93;;;;;;;;;;5023019;28;20045;-58
2023/03/29 08:14:28;;;;;;;10.55;5.95;;;;;;;;;;5022968;28;20142;-58
2023/03/29 08:16:54;;;;;;;14.32;6.70;;;;;;;;;;5023127;28;20117;-58
2023/03/29 08:19:20;;;;;;;15.32;6.13;;;;;;;;;;5023447;28;20124;-58
2023/03/29 08:21:47;;;;;;;15.73;6.63;;;;;;;;;;5022571;28;20077;-59
2023/03/29 08:24:13;;;;;;;12.50;5.47;;;;;;;;;;5023337;28;20045;-58
2023/03/29 08:26:39;;;;;;;14.98;6.43;;;;;;;;;;5022874;28;20037;-59
2023/03/29 08:29:07;;;;;;;15.80;5.93;;;;;;;;;;5022671;28;20041;-58
2023/03/29 08:31:34;;;;;;;11.55;6.15;;;;;;;;;;5022731;28;20063;-58
2023/03/29 08:34:00;;;;;;;12.05;5.93;;;;;;;;;;5023275;28;20050;-58
2023/03/29 08:36:27;;;;;;;10.57;6.18;;;;;;;;;;5022409;28;20060;-59
2023/03/29 08:38:54;;;;;;;10.40;5.05;;;;;;;;;;5023407;28;20454;-58
2023/03/29 08:41:31;;;;;;;14.98;5.82;;;;;;;;;;5022011;28;20041;-58
2023/03/29 08:44:06;;;;;;;13.27;5.95;;;;;;;;;;5021530;28;20045;-59
2023/03/29 08:46:49;;;;;;;9.88;6.18;;;;;;;;;;5022572;28;20112;-58
2023/03/29 08:49:16;;;;;;;11.93;6.15;;;;;;;;;;5023032;28;20380;-58
2023/03/29 08:51:45;;;;;;;16.08;6.78;;;;;;;;;;5022194;28;20049;-58
2023/03/29 08:54:14;;;;;;;16.50;6.63;;;;;;;;;;5022820;28;20057;-58
2023/03/29 08:56:43;;;;;;;11.43;5.68;;;;;;;;;;5022476;28;20041;-58
2023/03/29 08:59:09;;;;;;;;;;;;;;;;;;5023721;28;20124;-58
2023/03/29 09:01:36;;;;;;;14.05;5.72;;;;;;;;;;5022707;28;20020;-58
2023/03/29 09:04:03;;;;;;;18.15;8.65;;;;;;;;;;5023801;28;20117;-58
2023/03/29 09:06:29;;;;;;;9.70;6.05;;;;;;;;;;5023372;28;20089;-58
2023/03/29 09:08:56;;;;;;;12.27;6.18;;;;;;;;;;5026658;28;20534;-58
2023/03/29 09:11:23;;;;;;;12.93;5.95;;;;;;;;;;5025700;28;20046;-58
2023/03/29 09:13:52;;;;;;;11.98;6.28;;;;;;;;;;5025655;28;20107;-58
2023/03/29 09:16:26;;;;;;;10.65;5.72;;;;;;;;;;5026584;28;20056;-59
2023/03/29 09:19:12;;;;;;;11.80;6.10;;;;;;;;;;5023556;28;20380;-58
2023/03/29 09:21:50;;;;;;;14.10;5.97;;;;;;;;;;5023649;28;20111;-59
2023/03/29 09:24:31;;;;;;;14.80;5.30;;;;;;;;;;5026441;28;20479;-58
2023/03/29 09:27:01;;;;;;;18.38;6.43;;;;;;;;;;5026204;28;20064;-59
2023/03/29 09:29:40;;;;;;;11.13;6.15;;;;;;;;;;5025657;28;20499;-58
2023/03/29 09:32:15;;;;;;;15.02;5.75;;;;;;;;;;5026191;28;20706;-59
2023/03/29 09:34:43;;;;;;;11.30;5.25;;;;;;;;;;5026617;28;20041;-58
2023/03/29 09:37:09;;;;;;;;;;;;;;;;;;5025746;28;20037;-58
2023/03/29 09:39:36;;;;;;;12.10;5.85;;;;;;;;;;5023976;28;19921;-58
2023/03/29 09:42:04;;;;;;;15.65;5.78;;;;;;;;;;5025789;28;20403;-58
2023/03/29 09:44:35;;;;;;;16.20;6.03;;;;;;;;;;5024502;28;20053;-58
2023/03/29 09:47:06;;;;;;;16.33;5.97;;;;;;;;;;5025830;28;20046;-58
2023/03/29 09:49:35;;;;;;;14.95;7.60;;;;;;;;;;5025403;28;20050;-58
2023/03/29 09:52:05;;;;;;;14.88;6.78;;;;;;;;;;5024908;28;20041;-57
2023/03/29 09:54:32;;;;;;;9.93;6.13;;;;;;;;;;5025177;28;20081;-58
2023/03/29 09:56:58;;;;;;;13.75;6.18;;;;;;;;;;5025139;28;20154;-58
2023/03/29 09:59:25;;;;;;;14.27;6.43;;;;;;;;;;5024298;28;20046;-59
2023/03/29 10:01:51;;;;;;;12.32;6.22;;;;;;;;;;5025752;28;20073;-58
2023/03/29 10:04:19;;;;;;;15.65;7.25;;;;;;;;;;5025574;28;20049;-59
2023/03/29 10:06:48;;;;;;;19.43;6.73;;;;;;;;;;5024560;28;20057;-58
2023/03/29 10:09:16;;;;;;;14.77;6.97;;;;;;;;;;5025660;28;20042;-58
2023/03/29 10:11:46;;;;;;;15.52;7.15;;;;;;;;;;5024376;28;20647;-58
2023/03/29 10:14:16;;;;;;;13.93;6.85;;;;;;;;;;5025310;28;20045;-58
2023/03/29 10:16:44;;;;;;;17.75;7.13;;;;;;;;;;5024693;28;20128;-58
2023/03/29 10:19:19;;;;;;;13.55;7.20;;;;;;;;;;5022457;28;20272;-58
2023/03/29 10:21:47;;;;;;;19.92;7.55;;;;;;;;;;5024381;28;20072;-58
2023/03/29 10:24:13;;;;;;;;;;;;;;;;;;5025470;28;20041;-58
2023/03/29 10:26:40;;;;;;;13.65;6.88;;;;;;;;;;5024536;28;19928;-58
2023/03/29 10:29:07;;;;;;;13.63;7.65;;;;;;;;;;5025615;28;20288;-58
2023/03/29 10:31:36;;;;;;;14.73;7.53;;;;;;;;;;5024888;28;20045;-57
2023/03/29 10:34:05;;;;;;;17.50;7.68;;;;;;;;;;5024436;28;20045;-58
2023/03/29 10:36:31;;;;;;;15.23;7.75;;;;;;;;;;5020988;28;20076;-58
2023/03/29 10:38:59;;;;;;;16.15;8.15;;;;;;;;;;5024080;28;20753;-58
2023/03/29 10:41:26;;;;;;;14.40;8.25;;;;;;;;;;5023514;28;20055;-59
2023/03/29 10:43:53;;;;;;;12.90;7.53;;;;;;;;;;5024960;28;20053;-58
2023/03/29 10:46:26;;;;;;;16.70;7.78;;;;;;;;;;5025035;28;20052;-59
2023/03/29 10:48:56;;;;;;;13.48;7.55;;;;;;;;;;5024729;28;20095;-58
2023/03/29 10:51:23;;;;;;;15.48;8.13;;;;;;;;;;5023508;28;20083;-58
2023/03/29 10:53:49;;;;;;;17.92;7.43;;;;;;;;;;5023527;28;20033;-58
2023/03/29 10:56:33;;;;;;;15.27;7.82;;;;;;;;;;5023494;28;20060;-58
2023/03/29 10:59:01;;;;;;;17.80;8.38;;;;;;;;;;5023472;28;20041;-58
2023/03/29 11:01:34;;;;;;;17.40;8.65;;;;;;;;;;5022836;28;20057;-60
2023/03/29 11:04:19;;;;;;;13.63;8.32;;;;;;;;;;5023729;28;20037;-59
2023/03/29 11:06:52;;;;;;;12.02;6.95;;;;;;;;;;5022676;28;20054;-58
2023/03/29 11:09:24;;;;;;;18.58;8.30;;;;;;;;;;5023500;28;20049;-58
2023/03/29 11:11:56;;;;;;;11.65;7.68;;;;;;;;;;5023008;28;20041;-58
2023/03/29 11:14:27;;;;;;;15.02;8.15;;;;;;;;;;5020414;28;20080;-59
2023/03/29 11:16:58;;;;;;;14.40;7.93;;;;;;;;;;5024697;28;20041;-58
2023/03/29 11:19:25;;;;;;;13.68;7.80;;;;;;;;;;5020791;28;20499;-58
2023/03/29 11:21:51;;;;;;;15.80;7.50;;;;;;;;;;5023200;28;20049;-59
2023/03/29 11:24:28;;;;;;;18.08;8.88;;;;;;;;;;5022941;28;20132;-59
2023/03/29 11:27:13;;;;;;;14.68;7.88;;;;;;;;;;5018155;28;20045;-59
2023/03/29 11:29:45;;;;;;;14.27;7.05;;;;;;;;;;5016498;28;20091;-59
2023/03/29 11:32:15;;;;;;;19.73;9.27;;;;;;;;;;5021771;28;20128;-58
2023/03/29 11:34:58;;;;;;;20.80;8.45;;;;;;;;;;5021332;28;20037;-58
2023/03/29 11:37:31;;;;;;;21.65;10.70;;;;;;;;;;5018781;28;20491;-58
2023/03/29 11:40:15;;;;;;;11.52;7.57;;;;;;;;;;5018714;28;20038;-58
2023/03/29 11:42:44;;;;;;;17.23;6.78;;;;;;;;;;5021733;28;20140;-58
2023/03/29 11:45:14;;;;;;;11.13;6.43;;;;;;;;;;5020675;28;20202;-59
2023/03/29 11:47:43;;;;;;;15.10;7.78;;;;;;;;;;5013717;28;20052;-59
2023/03/29 11:50:09;;;;;;;;;;;;;;;;;;5019932;28;20046;-58
2023/03/29 11:52:39;;;;;;;12.45;7.10;;;;;;;;;;5005798;28;19921;-59
2023/03/29 11:55:14;;;;;;;13.57;6.65;;;;;;;;;;5010487;28;20124;-58
2023/03/29 11:57:45;;;;;;;11.80;6.00;;;;;;;;;;5013376;28;20077;-60
2023/03/29 12:00:14;;;;;;;12.05;6.90;;;;;;;;;;5018670;28;20045;-59
2023/03/29 12:02:44;;;;;;;9.60;6.05;;;;;;;;;;5018266;28;20045;-59
2023/03/29 12:05:22;;;;;;;8.90;5.60;;;;;;;;;;5015726;28;20045;-59
2023/03/29 12:07:53;;;;;;;9.52;6.05;;;;;;;;;;5011525;28;20045;-59
2023/03/29 12:10:20;;;;;;;10.75;5.90;;;;;;;;;;5019282;28;20156;-59
2023/03/29 12:12:56;;;;;;;9.88;6.30;;;;;;;;;;5017213;28;20061;-58
2023/03/29 12:15:23;;;;;;;12.35;5.80;;;;;;;;;;5016774;28;20053;-59
2023/03/29 12:18:07;;;;;;;13.25;5.70;;;;;;;;;;5015429;28;20483;-59
2023/03/29 12:20:35;;;;;;;13.88;6.32;;;;;;;;;;5017570;28;20106;-58
2023/03/29 12:23:02;;;;;;;11.63;6.07;;;;;;;;;;5017009;28;20049;-59
2023/03/29 12:25:31;;;;;;;13.23;6.55;;;;;;;;;;5019515;28;20050;-58
2023/03/29 12:27:57;;;;;;;14.18;7.10;;;;;;;;;;5015131;28;20095;-60
2023/03/29 12:30:24;;;;;;;13.50;6.53;;;;;;;;;;5019195;28;20495;-59
2023/03/29 12:32:51;;;;;;;12.27;7.68;;;;;;;;;;5015094;28;20038;-59
2023/03/29 12:35:18;;;;;;;19.30;12.50;;;;;;;;;;5019036;28;20041;-59
2023/03/29 12:37:52;;;;;;;12.50;6.13;;;;;;;;;;5017743;28;20044;-59
2023/03/29 12:40:20;;;;;;;12.00;6.28;;;;;;;;;;5022759;28;20084;-58
2023/03/29 12:42:48;;;;;;;10.00;6.28;;;;;;;;;;5020909;28;20046;-58
2023/03/29 12:45:18;;;;;;;16.50;7.45;;;;;;;;;;5027896;28;20045;-58
2023/03/29 12:47:46;;;;;;;15.00;6.78;;;;;;;;;;5028871;28;20049;-58
2023/03/29 12:50:27;;;;;;;13.27;6.88;;;;;;;;;;5027804;28;20055;-58
2023/03/29 12:53:01;;;;;;;18.02;8.68;;;;;;;;;;5028679;28;20041;-58
2023/03/29 12:55:31;;;;;;;17.42;6.75;;;;;;;;;;5028207;28;20050;-58
2023/03/29 12:58:06;;;;;;;12.02;5.97;;;;;;;;;;5027888;28;20657;-58
2023/03/29 13:00:33;;;;;;;12.50;6.47;;;;;;;;;;5035388;28;20068;-58
2023/03/29 13:03:03;;;;;;;11.65;7.03;;;;;;;;;;5028551;28;20045;-58
2023/03/29 13:05:31;;;;;;;21.25;7.15;;;;;;;;;;5027031;28;20070;-58
2023/03/29 13:07:57;;;;;;;13.60;6.43;;;;;;;;;;5026811;28;20061;-57
2023/03/29 13:10:36;;;;;;;14.90;6.57;;;;;;;;;;5028289;28;20103;-58
2023/03/29 13:13:11;;;;;;;14.88;6.38;;;;;;;;;;5028078;28;20038;-58
2023/03/29 13:15:38;;;;;;;13.00;6.97;;;;;;;;;;5027318;28;20052;-59
2023/03/29 13:18:11;;;;;;;12.10;6.50;;;;;;;;;;5027893;28;20084;-58
2023/03/29 13:20:45;;;;;;;12.07;6.80;;;;;;;;;;5026503;28;20053;-59
2023/03/29 13:23:25;;;;;;;12.73;7.18;;;;;;;;;;5027488;28;20056;-58
2023/03/29 13:25:51;;;;;;;17.48;7.22;;;;;;;;;;5027095;28;20038;-58
2023/03/29 13:28:18;;;;;;;12.65;7.20;;;;;;;;;;5027698;28;20053;-61
2023/03/29 13:30:50;;;;;;;16.02;7.85;;;;;;;;;;5027339;28;20064;-58
2023/03/29 13:33:16;;;;;;;13.23;7.63;;;;;;;;;;5023123;28;20049;-58
2023/03/29 13:35:50;;;;;;;14.65;7.55;;;;;;;;;;5021576;28;20041;-57
2023/03/29 13:38:19;;;;;;;16.70;7.85;;;;;;;;;;5014041;28;20043;-58
2023/03/29 13:40:57;;;;;;;15.73;7.53;;;;;;;;;;5026200;28;20060;-58
2023/03/29 13:43:31;;;;;;;13.02;7.93;;;;;;;;;;5023424;28;20462;-58
2023/03/29 13:45:57;;;;;;;12.70;7.53;;;;;;;;;;5027299;28;20064;-58
2023/03/29 13:48:27;;;;;;;15.35;7.75;;;;;;;;;;5027178;28;20052;-58
2023/03/29 13:51:00;;;;;;;13.40;7.72;;;;;;;;;;5023963;28;20133;-58
2023/03/29 13:53:31;;;;;;;13.32;7.43;;;;;;;;;;5023311;28;20064;-60
2023/03/29 13:55:57;;;;;;;13.48;7.72;;;;;;;;;;5024832;28;20049;-59
2023/03/29 13:58:26;;;;;;;11.77;7.47;;;;;;;;;;5023813;28;20099;-59
2023/03/29 14:00:54;;;;;;;13.13;7.47;;;;;;;;;;5025118;28;20029;-58
2023/03/29 14:03:28;;;;;;;18.25;7.55;;;;;;;;;;5025134;28;20045;-58
2023/03/29 14:05:57;;;;;;;17.77;8.57;;;;;;;;;;5019183;28;20050;-58
2023/03/29 14:08:26;;;;;;;14.70;8.00;;;;;;;;;;5010423;28;20046;-59
2023/03/29 14:10:53;;;;;;;13.90;8.10;;;;;;;;;;5025209;28;20044;-58
2023/03/29 14:13:21;;;;;;;15.57;7.88;;;;;;;;;;5014521;28;20042;-58
2023/03/29 14:15:50;;;;;;;16.63;8.70;;;;;;;;;;5007468;28;20042;-59
2023/03/29 14:18:18;;;;;;;15.05;8.15;;;;;;;;;;5008263;28;20187;-58
2023/03/29 14:20:46;;;;;;;18.52;8.82;;;;;;;;;;5007049;28;21043;-58
2023/03/29 14:23:15;;;;;;;14.07;8.52;;;;;;;;;;5007751;28;20545;-58
2023/03/29 14:25:41;;;;;;;12.70;8.35;;;;;;;;;;5011498;28;20051;-58
2023/03/29 14:28:12;;;;;;;16.40;8.48;;;;;;;;;;5027717;28;20089;-59
2023/03/29 14:30:45;;;;;;;22.80;8.85;;;;;;;;;;5007423;28;20046;-58
2023/03/29 14:33:25;;;;;;;13.13;8.18;;;;;;;;;;5007757;28;20053;-58
2023/03/29 14:35:51;;;;;;;18.15;9.10;;;;;;;;;;5006935;28;20050;-58
2023/03/29 14:38:18;;;;;;;15.50;8.90;;;;;;;;;;5007348;28;20469;-58
2023/03/29 14:40:44;;;;;;;15.35;8.60;;;;;;;;;;5007365;28;20073;-58
2023/03/29 14:43:14;;;;;;;17.00;8.63;;;;;;;;;;5022709;28;20405;-58